sensor_id;sensor_type;location;lat;lon;timestamp;pressure;altitude;pressure_sealevel;temperature;humidity
4199;BME280;2113;50.946;14.610;2023-05-01T00:01:57;97260.38;;;1.33;84.56
4199;BME280;2113;50.946;14.610;2023-05-01T00:04:26;97264.69;;;1.32;83.73
4199;BME280;2113;50.946;14.610;2023-05-01T00:06:55;97258.84;;;1.46;82.56
4199;BME280;2113;50.946;14.610;2023-05-01T00:09:26;97256.34;;;1.45;82.66
4199;BME280;2113;50.946;14.610;2023-05-01T00:11:56;97259.78;;;1.28;83.77
4199;BME280;2113;50.946;14.610;2023-05-01T00:14:25;97263.31;;;1.25;84.43
4199;BME280;2113;50.946;14.610;2023-05-01T00:16:53;97258.56;;;1.18;84.37
4199;BME280;2113;50.946;14.610;2023-05-01T00:19:22;97254.13;;;1.04;84.49
4199;BME280;2113;50.946;14.610;2023-05-01T00:21:50;97257.19;;;1.11;84.27
4199;BME280;2113;50.946;14.610;2023-05-01T00:24:19;97254.03;;;1.23;83.14
4199;BME280;2113;50.946;14.610;2023-05-01T00:26:47;97249.63;;;1.25;82.70
4199;BME280;2113;50.946;14.610;2023-05-01T00:29:17;97248.13;;;1.21;82.41
4199;BME280;2113;50.946;14.610;2023-05-01T00:31:46;97252.81;;;1.13;84.26
4199;BME280;2113;50.946;14.610;2023-05-01T00:34:14;97248.84;;;1.07;84.71
4199;BME280;2113;50.946;14.610;2023-05-01T00:36:42;97245.94;;;1.13;84.52
4199;BME280;2113;50.946;14.610;2023-05-01T00:39:11;97241.19;;;0.88;85.37
4199;BME280;2113;50.946;14.610;2023-05-01T00:41:39;97245.34;;;0.91;85.23
4199;BME280;2113;50.946;14.610;2023-05-01T00:44:07;97241.09;;;0.73;84.73
4199;BME280;2113;50.946;14.610;2023-05-01T00:46:37;97239.06;;;0.62;86.24
4199;BME280;2113;50.946;14.610;2023-05-01T00:49:05;97231.59;;;0.75;85.95
4199;BME280;2113;50.946;14.610;2023-05-01T00:51:34;97232.31;;;0.59;85.91
4199;BME280;2113;50.946;14.610;2023-05-01T00:54:04;97230.44;;;0.63;85.66
4199;BME280;2113;50.946;14.610;2023-05-01T00:56:32;97231.13;;;0.66;85.45
4199;BME280;2113;50.946;14.610;2023-05-01T00:59:01;97230.34;;;0.47;86.61
4199;BME280;2113;50.946;14.610;2023-05-01T01:01:30;97222.25;;;0.38;86.30
4199;BME280;2113;50.946;14.610;2023-05-01T01:04:00;97223.22;;;0.35;86.35
4199;BME280;2113;50.946;14.610;2023-05-01T01:06:34;97219.56;;;0.41;86.71
4199;BME280;2113;50.946;14.610;2023-05-01T01:09:16;97225.06;;;0.50;86.25
4199;BME280;2113;50.946;14.610;2023-05-01T01:11:54;97224.94;;;0.53;86.19
4199;BME280;2113;50.946;14.610;2023-05-01T01:14:29;97221.94;;;0.44;87.06
4199;BME280;2113;50.946;14.610;2023-05-01T01:17:03;97216.44;;;0.34;86.86
4199;BME280;2113;50.946;14.610;2023-05-01T01:20:09;97226.06;;;0.29;87.44
4199;BME280;2113;50.946;14.610;2023-05-01T01:22:46;97223.63;;;0.45;87.05
4199;BME280;2113;50.946;14.610;2023-05-01T01:25:32;97223.56;;;0.63;85.91
4199;BME280;2113;50.946;14.610;2023-05-01T01:28:16;97221.97;;;0.61;85.83
4199;BME280;2113;50.946;14.610;2023-05-01T01:31:13;97213.00;;;0.52;86.20
4199;BME280;2113;50.946;14.610;2023-05-01T01:34:00;97213.50;;;0.59;85.91
4199;BME280;2113;50.946;14.610;2023-05-01T01:36:42;97209.66;;;0.50;86.83
4199;BME280;2113;50.946;14.610;2023-05-01T01:39:23;97205.31;;;0.33;87.08
4199;BME280;2113;50.946;14.610;2023-05-01T01:41:57;97203.78;;;0.29;87.30
4199;BME280;2113;50.946;14.610;2023-05-01T01:44:32;97201.16;;;0.31;86.59
4199;BME280;2113;50.946;14.610;2023-05-01T01:47:04;97201.88;;;0.52;86.54
4199;BME280;2113;50.946;14.610;2023-05-01T01:49:39;97199.25;;;0.53;86.12
4199;BME280;2113;50.946;14.610;2023-05-01T01:52:12;97196.66;;;0.36;86.94
4199;BME280;2113;50.946;14.610;2023-05-01T01:54:47;97195.94;;;0.32;86.70
4199;BME280;2113;50.946;14.610;2023-05-01T01:57:17;97193.97;;;0.20;86.90
4199;BME280;2113;50.946;14.610;2023-05-01T01:59:46;97189.72;;;0.19;87.27
4199;BME280;2113;50.946;14.610;2023-05-01T02:02:18;97188.88;;;0.38;86.86
4199;BME280;2113;50.946;14.610;2023-05-01T02:04:50;97191.44;;;0.38;86.70
4199;BME280;2113;50.946;14.610;2023-05-01T02:07:23;97179.31;;;0.22;87.37
4199;BME280;2113;50.946;14.610;2023-05-01T02:09:54;97186.81;;;0.27;87.20
4199;BME280;2113;50.946;14.610;2023-05-01T02:12:25;97177.97;;;0.32;86.91
4199;BME280;2113;50.946;14.610;2023-05-01T02:14:54;97174.63;;;0.30;86.98
4199;BME280;2113;50.946;14.610;2023-05-01T02:17:24;97172.31;;;0.43;86.25
4199;BME280;2113;50.946;14.610;2023-05-01T02:19:56;97173.88;;;0.28;86.70
4199;BME280;2113;50.946;14.610;2023-05-01T02:22:26;97181.78;;;0.07;88.17
4199;BME280;2113;50.946;14.610;2023-05-01T02:24:59;97179.72;;;-0.04;88.50
4199;BME280;2113;50.946;14.610;2023-05-01T02:27:31;97172.28;;;-0.10;88.92
4199;BME280;2113;50.946;14.610;2023-05-01T02:30:02;97170.38;;;-0.24;89.25
4199;BME280;2113;50.946;14.610;2023-05-01T02:32:38;97168.06;;;-0.11;89.24
4199;BME280;2113;50.946;14.610;2023-05-01T02:35:09;97169.53;;;-0.06;89.31
4199;BME280;2113;50.946;14.610;2023-05-01T02:37:37;97166.50;;;-0.14;89.20
4199;BME280;2113;50.946;14.610;2023-05-01T02:40:07;97168.06;;;-0.11;88.95
4199;BME280;2113;50.946;14.610;2023-05-01T02:42:38;97168.22;;;-0.14;88.90
4199;BME280;2113;50.946;14.610;2023-05-01T02:45:08;97170.16;;;-0.19;89.05
4199;BME280;2113;50.946;14.610;2023-05-01T02:47:42;97160.41;;;-0.30;89.16
4199;BME280;2113;50.946;14.610;2023-05-01T02:50:14;97159.06;;;-0.20;89.78
4199;BME280;2113;50.946;14.610;2023-05-01T02:52:43;97160.09;;;-0.05;89.08
4199;BME280;2113;50.946;14.610;2023-05-01T02:55:32;97156.63;;;-0.04;88.87
4199;BME280;2113;50.946;14.610;2023-05-01T02:58:01;97159.31;;;0.12;87.69
4199;BME280;2113;50.946;14.610;2023-05-01T03:00:31;97149.44;;;0.03;87.65
4199;BME280;2113;50.946;14.610;2023-05-01T03:02:59;97148.53;;;-0.14;88.22
4199;BME280;2113;50.946;14.610;2023-05-01T03:05:29;97149.66;;;-0.38;88.73
4199;BME280;2113;50.946;14.610;2023-05-01T03:07:58;97149.44;;;-0.33;89.74
4199;BME280;2113;50.946;14.610;2023-05-01T03:10:26;97146.81;;;-0.32;89.92
4199;BME280;2113;50.946;14.610;2023-05-01T03:12:54;97145.97;;;-0.32;90.14
4199;BME280;2113;50.946;14.610;2023-05-01T03:15:22;97146.59;;;-0.27;89.84
4199;BME280;2113;50.946;14.610;2023-05-01T03:17:50;97149.34;;;-0.13;89.28
4199;BME280;2113;50.946;14.610;2023-05-01T03:20:19;97148.59;;;-0.15;89.00
4199;BME280;2113;50.946;14.610;2023-05-01T03:22:48;97140.91;;;-0.15;89.33
4199;BME280;2113;50.946;14.610;2023-05-01T03:25:17;97144.56;;;-0.21;89.35
4199;BME280;2113;50.946;14.610;2023-05-01T03:27:47;97150.59;;;-0.22;89.44
4199;BME280;2113;50.946;14.610;2023-05-01T03:30:21;97146.94;;;-0.16;89.30
4199;BME280;2113;50.946;14.610;2023-05-01T03:32:51;97139.00;;;-0.12;88.82
4199;BME280;2113;50.946;14.610;2023-05-01T03:35:27;97142.38;;;-0.28;88.61
4199;BME280;2113;50.946;14.610;2023-05-01T03:37:57;97138.16;;;-0.29;89.19
4199;BME280;2113;50.946;14.610;2023-05-01T03:40:58;97132.13;;;-0.28;89.77
4199;BME280;2113;50.946;14.610;2023-05-01T03:43:46;97136.59;;;-0.15;89.80
4199;BME280;2113;50.946;14.610;2023-05-01T03:46:27;97136.59;;;-0.15;89.28
4199;BME280;2113;50.946;14.610;2023-05-01T03:48:57;97132.84;;;-0.26;89.28
4199;BME280;2113;50.946;14.610;2023-05-01T03:51:27;97133.53;;;-0.23;89.89
4199;BME280;2113;50.946;14.610;2023-05-01T03:53:59;97135.25;;;-0.05;89.77
4199;BME280;2113;50.946;14.610;2023-05-01T03:56:32;97142.44;;;0.06;89.30
4199;BME280;2113;50.946;14.610;2023-05-01T03:59:04;97125.06;;;0.28;88.67
4199;BME280;2113;50.946;14.610;2023-05-01T04:01:33;97129.72;;;0.39;88.18
4199;BME280;2113;50.946;14.610;2023-05-01T04:04:02;97127.94;;;0.57;87.20
4199;BME280;2113;50.946;14.610;2023-05-01T04:06:31;97132.03;;;0.78;86.47
4199;BME280;2113;50.946;14.610;2023-05-01T04:09:01;97127.88;;;1.09;85.16
4199;BME280;2113;50.946;14.610;2023-05-01T04:11:30;97129.81;;;1.21;85.04
4199;BME280;2113;50.946;14.610;2023-05-01T04:13:58;97131.25;;;1.42;84.17
4199;BME280;2113;50.946;14.610;2023-05-01T04:16:27;97119.16;;;1.60;84.26
4199;BME280;2113;50.946;14.610;2023-05-01T04:18:58;97118.38;;;1.58;83.92
4199;BME280;2113;50.946;14.610;2023-05-01T04:21:26;97122.78;;;1.71;82.31
4199;BME280;2113;50.946;14.610;2023-05-01T04:23:57;97116.50;;;2.07;80.70
4199;BME280;2113;50.946;14.610;2023-05-01T04:26:29;97126.72;;;2.08;81.54
4199;BME280;2113;50.946;14.610;2023-05-01T04:28:59;97119.41;;;2.17;81.81
4199;BME280;2113;50.946;14.610;2023-05-01T04:31:31;97124.53;;;2.32;80.91
4199;BME280;2113;50.946;14.610;2023-05-01T04:34:00;97121.34;;;2.43;80.36
4199;BME280;2113;50.946;14.610;2023-05-01T04:36:28;97117.06;;;2.58;80.32
4199;BME280;2113;50.946;14.610;2023-05-01T04:38:59;97122.50;;;2.67;79.90
4199;BME280;2113;50.946;14.610;2023-05-01T04:41:30;97113.22;;;2.79;79.43
4199;BME280;2113;50.946;14.610;2023-05-01T04:43:59;97111.22;;;2.98;77.78
4199;BME280;2113;50.946;14.610;2023-05-01T04:46:27;97112.13;;;3.26;78.10
4199;BME280;2113;50.946;14.610;2023-05-01T04:48:55;97118.38;;;3.36;76.61
4199;BME280;2113;50.946;14.610;2023-05-01T04:51:24;97110.69;;;3.63;75.36
4199;BME280;2113;50.946;14.610;2023-05-01T04:53:54;97120.16;;;3.76;75.26
4199;BME280;2113;50.946;14.610;2023-05-01T04:56:25;97117.34;;;3.93;74.67
4199;BME280;2113;50.946;14.610;2023-05-01T04:59:01;97111.41;;;4.06;74.67
4199;BME280;2113;50.946;14.610;2023-05-01T05:01:30;97114.84;;;4.19;73.08
4199;BME280;2113;50.946;14.610;2023-05-01T05:03:58;97113.97;;;4.33;72.93
4199;BME280;2113;50.946;14.610;2023-05-01T05:06:28;97115.88;;;4.56;71.69
4199;BME280;2113;50.946;14.610;2023-05-01T05:08:57;97115.16;;;4.67;70.99
4199;BME280;2113;50.946;14.610;2023-05-01T05:11:26;97113.84;;;4.86;70.92
4199;BME280;2113;50.946;14.610;2023-05-01T05:13:56;97114.56;;;5.01;70.89
4199;BME280;2113;50.946;14.610;2023-05-01T05:16:26;97105.03;;;5.27;69.20
4199;BME280;2113;50.946;14.610;2023-05-01T05:18:57;97099.03;;;5.63;65.66
4199;BME280;2113;50.946;14.610;2023-05-01T05:21:26;97096.50;;;5.87;65.28
4199;BME280;2113;50.946;14.610;2023-05-01T05:23:56;97100.81;;;5.99;66.24
4199;BME280;2113;50.946;14.610;2023-05-01T05:26:26;97095.19;;;6.05;66.37
4199;BME280;2113;50.946;14.610;2023-05-01T05:28:57;97089.00;;;6.19;65.61
4199;BME280;2113;50.946;14.610;2023-05-01T05:31:26;97087.38;;;6.29;66.11
4199;BME280;2113;50.946;14.610;2023-05-01T05:33:55;97084.75;;;6.41;62.71
4199;BME280;2113;50.946;14.610;2023-05-01T05:36:25;97089.03;;;6.54;63.62
4199;BME280;2113;50.946;14.610;2023-05-01T05:38:55;97086.91;;;6.70;64.60
4199;BME280;2113;50.946;14.610;2023-05-01T05:41:23;97085.88;;;6.72;63.10
4199;BME280;2113;50.946;14.610;2023-05-01T05:43:57;97086.13;;;6.81;61.23
4199;BME280;2113;50.946;14.610;2023-05-01T05:46:29;97080.97;;;6.92;63.08
4199;BME280;2113;50.946;14.610;2023-05-01T05:48:57;97089.09;;;6.98;61.50
4199;BME280;2113;50.946;14.610;2023-05-01T05:51:26;97079.78;;;7.07;61.28
4199;BME280;2113;50.946;14.610;2023-05-01T05:53:55;97085.22;;;7.15;60.21
4199;BME280;2113;50.946;14.610;2023-05-01T05:56:23;97081.22;;;7.33;60.62
4199;BME280;2113;50.946;14.610;2023-05-01T05:58:52;97088.28;;;7.42;61.56
4199;BME280;2113;50.946;14.610;2023-05-01T06:01:20;97080.13;;;7.47;58.89
4199;BME280;2113;50.946;14.610;2023-05-01T06:03:50;97081.19;;;7.56;59.60
4199;BME280;2113;50.946;14.610;2023-05-01T06:06:19;97077.53;;;7.58;59.43
4199;BME280;2113;50.946;14.610;2023-05-01T06:08:48;97079.50;;;7.66;59.20
4199;BME280;2113;50.946;14.610;2023-05-01T06:11:17;97075.97;;;7.56;57.60
4199;BME280;2113;50.946;14.610;2023-05-01T06:13:47;97081.88;;;7.58;59.40
4199;BME280;2113;50.946;14.610;2023-05-01T06:16:15;97080.72;;;7.62;58.37
4199;BME280;2113;50.946;14.610;2023-05-01T06:18:45;97080.94;;;7.70;59.31
4199;BME280;2113;50.946;14.610;2023-05-01T06:21:14;97078.31;;;7.70;58.21
4199;BME280;2113;50.946;14.610;2023-05-01T06:23:43;97083.06;;;7.76;58.65
4199;BME280;2113;50.946;14.610;2023-05-01T06:26:22;97074.03;;;7.91;57.69
4199;BME280;2113;50.946;14.610;2023-05-01T06:28:54;97073.97;;;8.13;58.17
4199;BME280;2113;50.946;14.610;2023-05-01T06:31:23;97078.75;;;8.29;57.65
4199;BME280;2113;50.946;14.610;2023-05-01T06:33:55;97075.94;;;8.53;55.78
4199;BME280;2113;50.946;14.610;2023-05-01T06:36:43;97072.06;;;8.47;52.75
4199;BME280;2113;50.946;14.610;2023-05-01T06:39:12;97074.50;;;8.60;53.49
4199;BME280;2113;50.946;14.610;2023-05-01T06:41:40;97083.63;;;8.75;53.49
4199;BME280;2113;50.946;14.610;2023-05-01T06:44:08;97083.63;;;8.75;53.80
4199;BME280;2113;50.946;14.610;2023-05-01T06:46:37;97083.81;;;8.83;51.63
4199;BME280;2113;50.946;14.610;2023-05-01T06:49:05;97069.78;;;8.96;53.08
4199;BME280;2113;50.946;14.610;2023-05-01T06:51:35;97074.81;;;9.18;53.95
4199;BME280;2113;50.946;14.610;2023-05-01T06:54:05;97067.31;;;9.74;50.06
4199;BME280;2113;50.946;14.610;2023-05-01T06:56:33;97060.97;;;12.21;44.43
4199;BME280;2113;50.946;14.610;2023-05-01T06:59:02;97063.72;;;12.55;43.39
4199;BME280;2113;50.946;14.610;2023-05-01T07:01:31;97051.56;;;14.00;38.84
4199;BME280;2113;50.946;14.610;2023-05-01T07:04:02;97056.50;;;14.03;40.10
4199;BME280;2113;50.946;14.610;2023-05-01T07:06:31;97050.59;;;13.50;38.11
4199;BME280;2113;50.946;14.610;2023-05-01T07:09:00;97052.81;;;14.46;36.43
4199;BME280;2113;50.946;14.610;2023-05-01T07:11:31;97037.19;;;14.52;36.90
4199;BME280;2113;50.946;14.610;2023-05-01T07:13:59;97046.72;;;14.78;37.95
4199;BME280;2113;50.946;14.610;2023-05-01T07:16:30;97046.03;;;14.35;36.73
4199;BME280;2113;50.946;14.610;2023-05-01T07:18:59;97037.22;;;14.61;37.88
4199;BME280;2113;50.946;14.610;2023-05-01T07:21:27;97033.44;;;15.35;37.13
4199;BME280;2113;50.946;14.610;2023-05-01T07:23:55;97034.41;;;14.86;37.51
4199;BME280;2113;50.946;14.610;2023-05-01T07:26:25;97038.03;;;13.70;36.52
4199;BME280;2113;50.946;14.610;2023-05-01T07:28:54;97030.59;;;14.97;36.10
4199;BME280;2113;50.946;14.610;2023-05-01T07:31:23;97023.16;;;16.26;35.83
4199;BME280;2113;50.946;14.610;2023-05-01T07:33:51;97027.13;;;17.20;34.11
4199;BME280;2113;50.946;14.610;2023-05-01T07:36:20;97022.56;;;14.82;37.43
4199;BME280;2113;50.946;14.610;2023-05-01T07:38:48;97025.38;;;14.40;37.86
4199;BME280;2113;50.946;14.610;2023-05-01T07:41:16;97022.66;;;16.68;34.58
4199;BME280;2113;50.946;14.610;2023-05-01T07:43:45;97022.69;;;15.52;33.67
4199;BME280;2113;50.946;14.610;2023-05-01T07:46:15;97023.31;;;15.15;36.03
4199;BME280;2113;50.946;14.610;2023-05-01T07:48:44;97018.25;;;16.15;35.08
4199;BME280;2113;50.946;14.610;2023-05-01T07:51:12;97022.53;;;15.54;35.01
4199;BME280;2113;50.946;14.610;2023-05-01T07:53:41;97027.19;;;14.40;35.51
4199;BME280;2113;50.946;14.610;2023-05-01T07:56:09;97017.97;;;14.84;36.48
4199;BME280;2113;50.946;14.610;2023-05-01T07:58:38;97017.38;;;15.99;37.15
4199;BME280;2113;50.946;14.610;2023-05-01T08:01:08;97015.31;;;15.56;35.50
4199;BME280;2113;50.946;14.610;2023-05-01T08:03:38;97015.63;;;15.45;35.80
4199;BME280;2113;50.946;14.610;2023-05-01T08:06:07;97017.59;;;15.90;34.30
4199;BME280;2113;50.946;14.610;2023-05-01T08:08:35;97014.09;;;16.43;34.26
4199;BME280;2113;50.946;14.610;2023-05-01T08:11:04;97011.00;;;17.44;33.91
4199;BME280;2113;50.946;14.610;2023-05-01T08:13:32;97011.72;;;16.11;33.96
4199;BME280;2113;50.946;14.610;2023-05-01T08:16:01;97010.59;;;16.74;33.80
4199;BME280;2113;50.946;14.610;2023-05-01T08:18:30;96999.59;;;17.73;33.21
4199;BME280;2113;50.946;14.610;2023-05-01T08:20:59;96992.75;;;18.15;32.64
4199;BME280;2113;50.946;14.610;2023-05-01T08:23:28;96986.16;;;19.37;29.29
4199;BME280;2113;50.946;14.610;2023-05-01T08:25:57;96987.69;;;20.07;29.10
4199;BME280;2113;50.946;14.610;2023-05-01T08:28:25;96990.03;;;19.41;30.29
4199;BME280;2113;50.946;14.610;2023-05-01T08:30:53;96986.84;;;19.11;32.18
4199;BME280;2113;50.946;14.610;2023-05-01T08:33:22;96979.56;;;19.61;29.39
4199;BME280;2113;50.946;14.610;2023-05-01T08:35:51;96989.38;;;18.06;30.54
4199;BME280;2113;50.946;14.610;2023-05-01T08:38:20;96982.06;;;19.34;29.36
4199;BME280;2113;50.946;14.610;2023-05-01T08:40:51;96978.47;;;19.14;29.30
4199;BME280;2113;50.946;14.610;2023-05-01T08:43:20;96983.03;;;17.50;31.78
4199;BME280;2113;50.946;14.610;2023-05-01T08:45:50;96980.03;;;18.25;30.06
4199;BME280;2113;50.946;14.610;2023-05-01T08:48:23;96978.25;;;18.32;30.13
4199;BME280;2113;50.946;14.610;2023-05-01T08:50:54;96976.91;;;18.85;31.06
4199;BME280;2113;50.946;14.610;2023-05-01T08:53:26;96977.19;;;18.26;30.80
4199;BME280;2113;50.946;14.610;2023-05-01T08:55:56;96973.88;;;19.29;29.61
4199;BME280;2113;50.946;14.610;2023-05-01T08:58:26;96970.38;;;19.50;30.41
4199;BME280;2113;50.946;14.610;2023-05-01T09:00:55;96968.19;;;19.67;28.64
4199;BME280;2113;50.946;14.610;2023-05-01T09:03:30;96978.66;;;19.40;29.00
4199;BME280;2113;50.946;14.610;2023-05-01T09:05:59;96977.44;;;19.97;28.09
4199;BME280;2113;50.946;14.610;2023-05-01T09:08:31;96974.41;;;16.97;34.36
4199;BME280;2113;50.946;14.610;2023-05-01T09:11:00;96977.50;;;16.86;33.72
4199;BME280;2113;50.946;14.610;2023-05-01T09:13:28;96970.25;;;18.68;32.84
4199;BME280;2113;50.946;14.610;2023-05-01T09:15:57;96979.31;;;17.29;31.76
4199;BME280;2113;50.946;14.610;2023-05-01T09:18:26;96974.66;;;17.46;31.84
4199;BME280;2113;50.946;14.610;2023-05-01T09:20:54;96964.06;;;18.89;29.65
4199;BME280;2113;50.946;14.610;2023-05-01T09:23:22;96969.88;;;17.05;29.53
4199;BME280;2113;50.946;14.610;2023-05-01T09:25:52;96968.50;;;17.10;30.79
4199;BME280;2113;50.946;14.610;2023-05-01T09:28:40;96960.03;;;16.99;29.77
4199;BME280;2113;50.946;14.610;2023-05-01T09:31:20;96964.19;;;17.38;29.09
4199;BME280;2113;50.946;14.610;2023-05-01T09:33:52;96947.59;;;17.95;28.06
4199;BME280;2113;50.946;14.610;2023-05-01T09:36:22;96955.28;;;17.39;29.92
4199;BME280;2113;50.946;14.610;2023-05-01T09:38:51;96940.97;;;17.63;30.10
4199;BME280;2113;50.946;14.610;2023-05-01T09:41:21;96937.38;;;17.20;29.14
4199;BME280;2113;50.946;14.610;2023-05-01T09:43:50;96942.56;;;16.84;31.43
4199;BME280;2113;50.946;14.610;2023-05-01T09:46:20;96940.31;;;17.61;27.97
4199;BME280;2113;50.946;14.610;2023-05-01T09:48:53;96943.13;;;16.56;29.31
4199;BME280;2113;50.946;14.610;2023-05-01T09:51:24;96941.72;;;16.68;28.76
4199;BME280;2113;50.946;14.610;2023-05-01T09:53:55;96931.47;;;17.68;26.91
4199;BME280;2113;50.946;14.610;2023-05-01T09:56:26;96929.84;;;18.80;23.81
4199;BME280;2113;50.946;14.610;2023-05-01T09:58:56;96932.88;;;18.28;27.07
4199;BME280;2113;50.946;14.610;2023-05-01T10:01:38;96937.44;;;17.41;29.25
4199;BME280;2113;50.946;14.610;2023-05-01T10:04:07;96940.03;;;17.70;28.26
4199;BME280;2113;50.946;14.610;2023-05-01T10:06:36;96928.53;;;17.78;28.35
4199;BME280;2113;50.946;14.610;2023-05-01T10:09:06;96923.38;;;18.13;27.13
4199;BME280;2113;50.946;14.610;2023-05-01T10:11:51;96921.91;;;16.73;29.38
4199;BME280;2113;50.946;14.610;2023-05-01T10:14:20;96922.38;;;16.24;31.00
4199;BME280;2113;50.946;14.610;2023-05-01T10:16:50;96923.78;;;16.12;31.43
4199;BME280;2113;50.946;14.610;2023-05-01T10:19:19;96915.78;;;16.57;30.03
4199;BME280;2113;50.946;14.610;2023-05-01T10:21:48;96911.25;;;17.10;28.22
4199;BME280;2113;50.946;14.610;2023-05-01T10:24:16;96902.59;;;17.31;27.75
4199;BME280;2113;50.946;14.610;2023-05-01T10:26:47;96896.94;;;17.34;28.16
4199;BME280;2113;50.946;14.610;2023-05-01T10:29:19;96896.97;;;16.60;28.98
4199;BME280;2113;50.946;14.610;2023-05-01T10:31:49;96905.25;;;16.20;28.64
4199;BME280;2113;50.946;14.610;2023-05-01T10:34:20;96903.81;;;16.99;30.68
4199;BME280;2113;50.946;14.610;2023-05-01T10:36:56;96894.63;;;16.95;28.27
4199;BME280;2113;50.946;14.610;2023-05-01T10:39:29;96888.84;;;17.71;26.86
4199;BME280;2113;50.946;14.610;2023-05-01T10:42:01;96876.63;;;17.49;28.52
4199;BME280;2113;50.946;14.610;2023-05-01T10:44:32;96882.53;;;17.00;27.85
4199;BME280;2113;50.946;14.610;2023-05-01T10:50:08;96872.47;;;19.35;26.72
4199;BME280;2113;50.946;14.610;2023-05-01T10:55:43;96871.47;;;17.26;27.72
4199;BME280;2113;50.946;14.610;2023-05-01T10:58:12;96872.25;;;17.41;28.30
4199;BME280;2113;50.946;14.610;2023-05-01T11:00:42;96872.50;;;16.37;26.03
4199;BME280;2113;50.946;14.610;2023-05-01T11:03:36;96863.41;;;16.98;26.49
4199;BME280;2113;50.946;14.610;2023-05-01T11:06:06;96840.59;;;17.27;25.48
4199;BME280;2113;50.946;14.610;2023-05-01T11:08:36;96845.84;;;17.41;27.63
4199;BME280;2113;50.946;14.610;2023-05-01T11:14:12;96844.09;;;18.13;26.86
4199;BME280;2113;50.946;14.610;2023-05-01T11:16:42;96838.69;;;18.55;26.78
4199;BME280;2113;50.946;14.610;2023-05-01T11:19:43;96845.59;;;17.36;25.19
4199;BME280;2113;50.946;14.610;2023-05-01T11:22:13;96833.09;;;17.09;26.34
4199;BME280;2113;50.946;14.610;2023-05-01T11:24:41;96827.97;;;17.22;26.03
4199;BME280;2113;50.946;14.610;2023-05-01T11:27:13;96831.41;;;17.01;24.44
4199;BME280;2113;50.946;14.610;2023-05-01T11:29:45;96824.56;;;17.64;24.42
4199;BME280;2113;50.946;14.610;2023-05-01T11:32:17;96824.00;;;17.12;25.61
4199;BME280;2113;50.946;14.610;2023-05-01T11:34:47;96820.72;;;17.46;25.85
4199;BME280;2113;50.946;14.610;2023-05-01T11:37:17;96820.72;;;17.46;25.61
4199;BME280;2113;50.946;14.610;2023-05-01T11:39:47;96812.25;;;17.71;26.39
4199;BME280;2113;50.946;14.610;2023-05-01T11:42:19;96801.91;;;17.55;24.50
4199;BME280;2113;50.946;14.610;2023-05-01T11:45:05;96799.25;;;17.98;26.76
4199;BME280;2113;50.946;14.610;2023-05-01T11:47:38;96797.31;;;18.41;26.14
4199;BME280;2113;50.946;14.610;2023-05-01T11:50:08;96791.88;;;18.90;25.67
4199;BME280;2113;50.946;14.610;2023-05-01T11:52:41;96792.81;;;18.76;24.99
4199;BME280;2113;50.946;14.610;2023-05-01T11:55:10;96788.28;;;18.63;25.03
4199;BME280;2113;50.946;14.610;2023-05-01T11:57:46;96783.34;;;17.91;25.31
4199;BME280;2113;50.946;14.610;2023-05-01T12:00:24;96778.97;;;19.35;26.52
4199;BME280;2113;50.946;14.610;2023-05-01T12:02:59;96772.91;;;19.61;25.54
4199;BME280;2113;50.946;14.610;2023-05-01T12:05:30;96767.09;;;17.94;26.47
4199;BME280;2113;50.946;14.610;2023-05-01T12:08:05;96767.78;;;17.32;26.21
4199;BME280;2113;50.946;14.610;2023-05-01T12:10:36;96766.41;;;18.41;26.60
4199;BME280;2113;50.946;14.610;2023-05-01T12:13:06;96761.84;;;17.52;23.94
4199;BME280;2113;50.946;14.610;2023-05-01T12:15:36;96750.03;;;17.90;24.72
4199;BME280;2113;50.946;14.610;2023-05-01T12:18:06;96742.50;;;17.66;26.64
4199;BME280;2113;50.946;14.610;2023-05-01T12:20:37;96746.59;;;17.96;27.12
4199;BME280;2113;50.946;14.610;2023-05-01T12:23:06;96746.50;;;18.11;27.38
4199;BME280;2113;50.946;14.610;2023-05-01T12:25:36;96740.75;;;18.01;26.91
4199;BME280;2113;50.946;14.610;2023-05-01T12:28:09;96738.47;;;18.67;26.28
4199;BME280;2113;50.946;14.610;2023-05-01T12:30:38;96733.69;;;17.59;28.17
4199;BME280;2113;50.946;14.610;2023-05-01T12:33:10;96731.69;;;17.61;30.11
4199;BME280;2113;50.946;14.610;2023-05-01T12:35:40;96720.56;;;17.44;27.84
4199;BME280;2113;50.946;14.610;2023-05-01T12:38:15;96718.34;;;17.69;29.21
4199;BME280;2113;50.946;14.610;2023-05-01T12:40:52;96711.72;;;17.80;28.52
4199;BME280;2113;50.946;14.610;2023-05-01T12:43:29;96709.16;;;17.93;28.49
4199;BME280;2113;50.946;14.610;2023-05-01T12:45:57;96702.81;;;18.15;29.41
4199;BME280;2113;50.946;14.610;2023-05-01T12:48:28;96697.34;;;17.61;28.42
4199;BME280;2113;50.946;14.610;2023-05-01T12:50:57;96692.69;;;18.73;30.35
4199;BME280;2113;50.946;14.610;2023-05-01T12:53:27;96689.13;;;19.33;32.36
4199;BME280;2113;50.946;14.610;2023-05-01T13:02:16;96683.34;;;18.70;28.73
4199;BME280;2113;50.946;14.610;2023-05-01T13:04:45;96675.81;;;17.92;32.02
4199;BME280;2113;50.946;14.610;2023-05-01T13:07:16;96667.50;;;18.29;31.68
4199;BME280;2113;50.946;14.610;2023-05-01T13:09:51;96672.63;;;17.68;31.06
4199;BME280;2113;50.946;14.610;2023-05-01T13:12:20;96667.72;;;17.65;28.78
4199;BME280;2113;50.946;14.610;2023-05-01T13:14:51;96658.25;;;18.12;34.39
4199;BME280;2113;50.946;14.610;2023-05-01T13:17:23;96656.88;;;17.82;30.48
4199;BME280;2113;50.946;14.610;2023-05-01T13:19:52;96651.16;;;18.73;32.81
4199;BME280;2113;50.946;14.610;2023-05-01T13:22:29;96644.97;;;18.40;29.63
4199;BME280;2113;50.946;14.610;2023-05-01T13:24:58;96644.22;;;18.11;30.44
4199;BME280;2113;50.946;14.610;2023-05-01T13:27:27;96632.13;;;18.30;31.44
4199;BME280;2113;50.946;14.610;2023-05-01T13:29:56;96632.91;;;19.11;32.27
4199;BME280;2113;50.946;14.610;2023-05-01T13:32:29;96633.94;;;19.10;30.55
4199;BME280;2113;50.946;14.610;2023-05-01T13:34:59;96629.63;;;18.70;32.31
4199;BME280;2113;50.946;14.610;2023-05-01T13:37:29;96621.50;;;18.24;32.01
4199;BME280;2113;50.946;14.610;2023-05-01T13:39:58;96614.53;;;18.64;32.18
4199;BME280;2113;50.946;14.610;2023-05-01T13:42:27;96616.41;;;19.16;29.79
4199;BME280;2113;50.946;14.610;2023-05-01T13:44:56;96618.44;;;18.81;31.81
4199;BME280;2113;50.946;14.610;2023-05-01T13:47:24;96621.22;;;18.60;31.72
4199;BME280;2113;50.946;14.610;2023-05-01T13:49:55;96617.69;;;17.92;32.93
4199;BME280;2113;50.946;14.610;2023-05-01T13:52:25;96620.88;;;17.74;32.45